createdAt,value
2022-07-25T00:00:37.951Z,3.40
2022-07-25T00:03:10.770Z,3.42
2022-07-25T00:05:40.442Z,3.40
2022-07-25T00:08:08.364Z,3.78
2022-07-25T00:10:36.383Z,3.60
2022-07-25T00:13:04.468Z,3.42
2022-07-25T00:15:32.580Z,3.80
2022-07-25T00:18:00.626Z,3.97
2022-07-25T00:20:28.775Z,3.80
2022-07-25T00:22:58.102Z,3.55
2022-07-25T00:25:26.143Z,3.97
2022-07-25T00:27:54.157Z,3.83
2022-07-25T00:30:22.337Z,4.10
2022-07-25T00:32:50.324Z,3.50
2022-07-25T00:35:18.386Z,4.22
2022-07-25T00:37:46.366Z,3.90
2022-07-25T00:40:17.202Z,4.03
2022-07-25T00:42:45.202Z,4.07
2022-07-25T00:45:13.188Z,3.90
2022-07-25T00:47:41.178Z,4.30
2022-07-25T00:50:09.806Z,3.80
2022-07-25T00:52:38.014Z,4.30
2022-07-25T00:55:07.103Z,4.05
2022-07-25T00:57:36.608Z,4.78
2022-07-25T01:00:06.838Z,4.00
2022-07-25T01:02:34.942Z,3.90
2022-07-25T01:05:04.196Z,4.20
2022-07-25T01:07:32.932Z,4.30
2022-07-25T01:10:01.235Z,4.88
2022-07-25T01:12:29.233Z,3.95
2022-07-25T01:14:58.849Z,4.03
2022-07-25T01:17:26.805Z,4.13
2022-07-25T01:19:54.779Z,3.92
2022-07-25T01:22:24.101Z,4.00
2022-07-25T01:24:52.102Z,4.78
2022-07-25T01:27:20.071Z,4.28
2022-07-25T01:29:48.041Z,4.75
2022-07-25T01:32:15.972Z,5.07
2022-07-25T01:34:43.975Z,4.35
2022-07-25T01:37:11.924Z,4.70
2022-07-25T01:39:41.322Z,4.60
2022-07-25T01:42:09.335Z,5.05
2022-07-25T01:44:37.393Z,4.30
2022-07-25T01:47:05.605Z,4.78
2022-07-25T01:49:34.190Z,5.20
2022-07-25T01:52:02.366Z,4.85
2022-07-25T01:54:30.332Z,5.07
2022-07-25T01:57:03.963Z,5.00
2022-07-25T01:59:32.045Z,4.88
2022-07-25T02:02:00.455Z,4.68
2022-07-25T02:04:28.528Z,5.10
2022-07-25T02:06:57.154Z,5.18
2022-07-25T02:09:25.112Z,5.30
2022-07-25T02:11:54.535Z,4.30
2022-07-25T02:14:24.438Z,5.05
2022-07-25T02:16:52.672Z,4.53
2022-07-25T02:19:40.784Z,4.55
2022-07-25T02:22:09.127Z,5.25
2022-07-25T02:24:37.323Z,4.97
2022-07-25T02:27:05.744Z,5.25
2022-07-25T02:29:35.271Z,5.00
2022-07-25T02:32:03.382Z,5.15
2022-07-25T02:34:31.635Z,4.95
2022-07-25T02:36:59.618Z,5.13
2022-07-25T02:39:27.602Z,5.00
2022-07-25T02:41:55.649Z,4.93
2022-07-25T02:44:23.652Z,5.28
2022-07-25T02:46:53.371Z,6.13
2022-07-25T02:49:21.438Z,5.85
2022-07-25T02:51:49.437Z,5.65
2022-07-25T02:54:17.475Z,6.18
2022-07-25T02:56:45.653Z,5.63
2022-07-25T02:59:13.638Z,6.00
2022-07-25T03:01:41.690Z,6.35
2022-07-25T03:04:11.447Z,6.38
2022-07-25T03:06:39.705Z,6.72
2022-07-25T03:09:07.641Z,6.45
2022-07-25T03:11:35.782Z,6.03
2022-07-25T03:14:04.056Z,6.25
2022-07-25T03:16:32.278Z,5.90
2022-07-25T03:19:00.233Z,5.65
2022-07-25T03:21:29.736Z,6.22
2022-07-25T03:23:57.781Z,6.28
2022-07-25T03:26:26.067Z,6.30
2022-07-25T03:28:54.073Z,6.65
2022-07-25T03:31:22.247Z,6.65
2022-07-25T03:33:51.096Z,6.53
2022-07-25T03:36:19.383Z,6.10
2022-07-25T03:38:48.791Z,6.30
2022-07-25T03:41:16.825Z,5.95
2022-07-25T03:43:44.753Z,6.05
2022-07-25T03:46:12.932Z,6.05
2022-07-25T03:48:41.069Z,5.70
2022-07-25T03:51:09.081Z,6.53
2022-07-25T03:53:57.094Z,6.47
2022-07-25T03:56:26.472Z,6.95
2022-07-25T03:58:54.461Z,6.97
2022-07-25T04:01:22.575Z,6.32
2022-07-25T04:03:50.688Z,6.53
2022-07-25T04:06:18.721Z,7.05
2022-07-25T04:08:48.726Z,7.07
2022-07-25T04:11:16.941Z,7.50
2022-07-25T04:13:46.668Z,7.82
2022-07-25T04:16:16.870Z,7.53
2022-07-25T04:18:50.928Z,8.10
2022-07-25T04:21:19.822Z,8.65
2022-07-25T04:23:50.497Z,8.35
2022-07-25T04:26:18.862Z,7.78
2022-07-25T04:28:48.727Z,7.00
2022-07-25T04:31:16.817Z,8.48
2022-07-25T04:33:45.404Z,8.40
2022-07-25T04:36:13.865Z,8.13
2022-07-25T04:38:41.969Z,8.27
2022-07-25T04:41:10.011Z,6.82
2022-07-25T04:43:38.016Z,7.75
2022-07-25T04:46:07.732Z,7.53
2022-07-25T04:48:36.043Z,7.53
2022-07-25T04:51:04.133Z,8.40
2022-07-25T04:53:32.305Z,8.23
2022-07-25T04:56:00.282Z,8.00
2022-07-25T04:58:28.351Z,8.77
2022-07-25T05:00:56.356Z,8.27
2022-07-25T05:03:25.814Z,8.32
2022-07-25T05:05:53.793Z,7.45
2022-07-25T05:08:21.776Z,8.13
2022-07-25T05:10:49.801Z,8.65
2022-07-25T05:13:19.788Z,8.23
2022-07-25T05:15:47.707Z,8.38
2022-07-25T05:18:15.751Z,8.10
2022-07-25T05:20:45.058Z,8.48
2022-07-25T05:23:13.039Z,8.77
2022-07-25T05:25:41.046Z,9.15
2022-07-25T05:28:09.868Z,9.07
2022-07-25T05:30:46.945Z,9.68
2022-07-25T05:33:14.994Z,8.65
2022-07-25T05:35:44.478Z,8.75
2022-07-25T05:38:12.555Z,8.43
2022-07-25T05:40:43.674Z,9.20
2022-07-25T05:43:11.764Z,8.25
2022-07-25T05:45:39.706Z,8.10
2022-07-25T05:48:07.997Z,7.95
2022-07-25T05:50:38.010Z,8.60
2022-07-25T05:53:07.517Z,8.52
2022-07-25T05:55:35.601Z,7.88
2022-07-25T05:58:09.467Z,7.28
2022-07-25T06:00:37.602Z,6.70
2022-07-25T06:03:06.295Z,6.20
2022-07-25T06:05:39.744Z,5.22
2022-07-25T06:08:09.254Z,5.03
2022-07-25T06:10:37.437Z,4.82
2022-07-25T06:13:05.449Z,4.28
2022-07-25T06:15:34.341Z,4.10
2022-07-25T06:18:02.362Z,3.85
2022-07-25T06:20:30.360Z,4.05
2022-07-25T06:22:58.313Z,3.40
2022-07-25T06:25:28.024Z,3.55
2022-07-25T06:27:59.272Z,3.40
2022-07-25T06:30:27.319Z,3.17
2022-07-25T06:32:55.917Z,3.80
2022-07-25T06:35:24.388Z,3.55
2022-07-25T06:37:52.563Z,3.97
2022-07-25T06:40:23.781Z,3.58
2022-07-25T06:42:53.119Z,3.00
2022-07-25T06:45:21.099Z,3.22
2022-07-25T06:47:49.261Z,2.40
2022-07-25T06:50:21.352Z,2.90
2022-07-25T06:52:50.401Z,2.50
2022-07-25T06:55:18.992Z,2.35
2022-07-25T06:57:46.934Z,2.22
2022-07-25T07:00:21.836Z,2.00
2022-07-25T07:02:56.165Z,1.92
2022-07-25T07:05:25.059Z,2.20
2022-07-25T07:07:53.056Z,2.40
2022-07-25T07:10:22.599Z,2.00
2022-07-25T07:12:51.160Z,2.10
2022-07-25T07:15:20.674Z,1.90
2022-07-25T07:17:48.722Z,2.78
2022-07-25T07:20:16.839Z,2.22
2022-07-25T07:22:46.008Z,2.25
2022-07-25T07:25:15.073Z,2.10
2022-07-25T07:27:43.470Z,2.05
2022-07-25T07:30:12.486Z,1.88
2022-07-25T07:32:42.922Z,1.90
2022-07-25T07:35:12.226Z,2.47
2022-07-25T07:37:43.629Z,1.80
2022-07-25T07:40:16.942Z,1.90
2022-07-25T07:42:47.398Z,1.50
2022-07-25T07:45:17.004Z,1.77
2022-07-25T07:47:48.141Z,1.65
2022-07-25T07:50:17.255Z,1.60
2022-07-25T07:52:46.285Z,1.40
2022-07-25T07:55:32.295Z,1.88
2022-07-25T07:58:00.799Z,1.40
2022-07-25T08:00:31.020Z,1.20
2022-07-25T08:03:01.000Z,1.50
2022-07-25T08:05:31.092Z,1.40
2022-07-25T08:07:59.571Z,1.52
2022-07-25T08:10:29.907Z,1.50
2022-07-25T08:12:58.524Z,1.45
2022-07-25T08:15:27.059Z,1.55
2022-07-25T08:17:55.114Z,2.00
2022-07-25T08:20:40.171Z,1.65
2022-07-25T08:23:10.905Z,1.63
2022-07-25T08:25:39.295Z,1.38
2022-07-25T08:28:07.894Z,2.03
2022-07-25T08:30:37.274Z,1.90
2022-07-25T08:33:07.614Z,2.22
2022-07-25T08:35:37.025Z,2.03
2022-07-25T08:38:05.880Z,1.92
2022-07-25T08:40:35.185Z,2.20
2022-07-25T08:43:03.365Z,1.67
2022-07-25T08:45:31.619Z,2.13
2022-07-25T08:47:59.703Z,1.90
2022-07-25T08:50:30.148Z,1.90
2022-07-25T08:53:31.599Z,1.80
2022-07-25T08:55:47.731Z,2.17
2022-07-25T08:58:17.874Z,2.03
2022-07-25T09:00:46.692Z,2.00
2022-07-25T09:03:14.841Z,1.90
2022-07-25T09:05:44.162Z,3.13
2022-07-25T09:08:14.917Z,1.98
2022-07-25T09:10:48.428Z,8.50
2022-07-25T09:13:16.689Z,2.33
2022-07-25T09:15:50.867Z,2.28
2022-07-25T09:18:23.378Z,2.00
2022-07-25T09:20:53.177Z,2.08
2022-07-25T09:23:31.641Z,2.05
2022-07-25T09:26:04.524Z,1.90
2022-07-25T09:28:33.426Z,1.77
2022-07-25T09:31:03.136Z,2.15
2022-07-25T09:33:31.803Z,2.10
2022-07-25T09:36:12.233Z,2.25
2022-07-25T09:38:41.571Z,2.20
2022-07-25T09:41:09.671Z,1.80
2022-07-25T09:43:38.745Z,1.75
2022-07-25T09:46:10.247Z,1.63
2022-07-25T09:48:40.608Z,1.83
2022-07-25T09:51:08.788Z,1.80
2022-07-25T09:53:36.973Z,1.90
2022-07-25T09:56:06.988Z,1.60
2022-07-25T09:58:37.184Z,2.03
2022-07-25T10:01:07.747Z,1.63
2022-07-25T10:03:46.440Z,2.00
2022-07-25T10:06:21.385Z,2.25
2022-07-25T10:08:50.173Z,1.58
2022-07-25T10:11:23.426Z,1.98
2022-07-25T10:13:52.021Z,2.03
2022-07-25T10:16:21.556Z,2.50
2022-07-25T10:18:56.881Z,1.73
2022-07-25T10:21:27.899Z,2.13
2022-07-25T10:24:00.771Z,1.52
2022-07-25T10:26:30.817Z,1.73
2022-07-25T10:29:02.953Z,1.60
2022-07-25T10:31:37.021Z,1.50
2022-07-25T10:34:07.323Z,1.80
2022-07-25T10:36:46.346Z,1.70
2022-07-25T10:39:15.883Z,1.85
2022-07-25T10:41:50.576Z,1.90
2022-07-25T10:44:18.540Z,2.22
2022-07-25T10:46:47.186Z,1.95
2022-07-25T10:49:20.023Z,2.20
2022-07-25T10:51:57.481Z,1.77
2022-07-25T10:54:25.578Z,1.90
2022-07-25T10:56:57.309Z,1.83
2022-07-25T10:59:30.240Z,1.90
2022-07-25T11:01:58.299Z,2.38
2022-07-25T11:04:26.266Z,2.22
2022-07-25T11:06:54.231Z,2.47
2022-07-25T11:09:27.288Z,2.05
2022-07-25T11:11:58.561Z,2.50
2022-07-25T11:14:28.589Z,2.10
2022-07-25T11:16:57.043Z,2.80
2022-07-25T11:19:27.194Z,2.30
2022-07-25T11:21:58.153Z,2.20
2022-07-25T11:24:35.912Z,2.30
2022-07-25T11:27:11.267Z,2.40
2022-07-25T11:29:41.060Z,2.42
2022-07-25T11:32:10.880Z,2.83
2022-07-25T11:34:41.221Z,2.60
2022-07-25T11:37:11.654Z,2.53
2022-07-25T11:39:42.220Z,2.75
2022-07-25T11:42:16.768Z,3.03
2022-07-25T11:44:48.063Z,2.90
2022-07-25T11:47:27.699Z,2.95
2022-07-25T11:49:57.794Z,3.08
2022-07-25T11:52:29.788Z,2.83
2022-07-25T11:54:59.861Z,2.80
2022-07-25T11:57:31.623Z,3.17
2022-07-25T12:00:01.274Z,3.03
2022-07-25T12:02:36.728Z,2.83
2022-07-25T12:05:06.651Z,2.55
2022-07-25T12:07:39.267Z,2.40
2022-07-25T12:10:09.170Z,3.33
2022-07-25T12:12:49.675Z,2.78
2022-07-25T12:15:20.337Z,3.05
2022-07-25T12:17:48.822Z,3.00
2022-07-25T12:20:18.018Z,3.13
2022-07-25T12:22:49.492Z,2.63
2022-07-25T12:25:17.740Z,2.65
2022-07-25T12:27:47.318Z,3.10
2022-07-25T12:30:15.664Z,3.22
2022-07-25T12:32:44.583Z,2.45
2022-07-25T12:35:14.052Z,3.17
2022-07-25T12:37:42.748Z,2.95
2022-07-25T12:40:12.269Z,2.95
2022-07-25T12:42:40.690Z,2.85
2022-07-25T12:45:11.563Z,2.70
2022-07-25T12:47:39.663Z,2.80
2022-07-25T12:50:08.886Z,2.42
2022-07-25T12:52:37.873Z,2.95
2022-07-25T12:55:06.754Z,2.55
2022-07-25T12:57:36.404Z,2.30
2022-07-25T13:00:04.999Z,2.55
2022-07-25T13:02:34.377Z,2.60
2022-07-25T13:05:02.597Z,2.95
2022-07-25T13:07:30.764Z,2.40
2022-07-25T13:09:58.937Z,2.50
2022-07-25T13:12:26.931Z,2.40
2022-07-25T13:14:54.992Z,2.83
2022-07-25T13:17:27.137Z,2.35
2022-07-25T13:19:57.850Z,2.30
2022-07-25T13:22:34.067Z,2.45
2022-07-25T13:25:02.049Z,3.10
2022-07-25T13:27:30.301Z,2.40
2022-07-25T13:29:58.344Z,2.78
2022-07-25T13:32:28.423Z,2.40
2022-07-25T13:34:58.128Z,2.58
2022-07-25T13:37:26.311Z,2.08
2022-07-25T13:39:54.402Z,2.15
2022-07-25T13:42:22.482Z,2.00
2022-07-25T13:44:50.491Z,2.10
2022-07-25T13:47:21.119Z,2.00
2022-07-25T13:49:49.063Z,2.83
2022-07-25T13:52:18.395Z,2.35
2022-07-25T13:54:46.303Z,2.80
2022-07-25T13:57:14.278Z,2.72
2022-07-25T13:59:42.311Z,2.42
2022-07-25T14:02:10.648Z,2.42
2022-07-25T14:04:38.658Z,2.60
2022-07-25T14:07:07.531Z,2.10
2022-07-25T14:09:39.841Z,2.05
2022-07-25T14:12:08.145Z,1.95
2022-07-25T14:14:36.051Z,2.08
2022-07-25T14:17:04.099Z,2.20
2022-07-25T14:19:32.614Z,1.90
2022-07-25T14:22:05.752Z,2.33
2022-07-25T14:24:41.225Z,2.13
2022-07-25T14:27:11.433Z,1.92
2022-07-25T14:29:42.570Z,2.20
2022-07-25T14:32:10.687Z,2.30
2022-07-25T14:34:41.343Z,2.10
2022-07-25T14:37:12.309Z,2.10
2022-07-25T14:39:41.682Z,3.03
2022-07-25T14:42:12.210Z,2.40
2022-07-25T14:44:40.754Z,2.03
2022-07-25T14:47:12.450Z,2.30
2022-07-25T14:49:41.514Z,1.77
2022-07-25T14:52:09.517Z,1.90
2022-07-25T14:54:37.837Z,1.98
2022-07-25T14:57:10.751Z,2.58
2022-07-25T14:59:38.726Z,2.05
2022-07-25T15:02:06.802Z,1.95
2022-07-25T15:04:35.090Z,1.90
2022-07-25T15:07:03.241Z,2.78
2022-07-25T15:09:34.041Z,1.70
2022-07-25T15:12:02.045Z,1.55
2022-07-25T15:14:31.358Z,1.40
2022-07-25T15:16:59.397Z,1.35
2022-07-25T15:19:27.813Z,1.90
2022-07-25T15:21:56.038Z,1.55
2022-07-25T15:24:28.941Z,2.10
2022-07-25T15:26:57.339Z,1.65
2022-07-25T15:29:25.310Z,2.05
2022-07-25T15:31:54.968Z,1.70
2022-07-25T15:34:23.105Z,1.65
2022-07-25T15:36:52.073Z,1.77
2022-07-25T15:39:20.417Z,1.77
2022-07-25T15:41:48.296Z,1.58
2022-07-25T15:44:16.282Z,1.70
2022-07-25T15:46:44.266Z,1.75
2022-07-25T15:49:14.022Z,1.88
2022-07-25T15:51:42.173Z,1.95
2022-07-25T15:54:10.204Z,2.15
2022-07-25T15:56:38.785Z,2.38
2022-07-25T15:59:07.468Z,2.67
2022-07-25T16:01:38.548Z,2.78
2022-07-25T16:04:06.825Z,2.78
2022-07-25T16:06:36.285Z,1.90
2022-07-25T16:09:05.162Z,2.50
2022-07-25T16:11:33.669Z,2.30
2022-07-25T16:14:01.765Z,2.45
2022-07-25T16:16:29.867Z,2.58
2022-07-25T16:18:58.749Z,2.58
2022-07-25T16:21:27.242Z,2.10
2022-07-25T16:23:56.935Z,2.75
2022-07-25T16:26:25.117Z,2.72
2022-07-25T16:28:57.313Z,2.15
2022-07-25T16:31:27.329Z,2.58
2022-07-25T16:33:55.914Z,2.08
2022-07-25T16:36:25.316Z,2.42
2022-07-25T16:38:53.410Z,2.83
2022-07-25T16:41:22.803Z,2.13
2022-07-25T16:43:50.941Z,2.72
2022-07-25T16:46:19.290Z,2.47
2022-07-25T16:48:47.961Z,2.35
2022-07-25T16:51:15.944Z,2.92
2022-07-25T16:53:43.873Z,2.58
2022-07-25T16:56:11.987Z,2.42
2022-07-25T16:58:41.374Z,2.17
2022-07-25T17:01:09.467Z,2.90
2022-07-25T17:03:37.427Z,2.70
2022-07-25T17:06:05.725Z,3.40
2022-07-25T17:08:34.725Z,3.22
2022-07-25T17:11:03.382Z,2.88
2022-07-25T17:13:31.818Z,3.28
2022-07-25T17:16:01.178Z,2.75
2022-07-25T17:18:29.196Z,3.05
2022-07-25T17:20:57.137Z,2.40
2022-07-25T17:23:25.620Z,2.85
2022-07-25T17:25:54.643Z,4.43
2022-07-25T17:28:23.193Z,2.75
2022-07-25T17:30:51.677Z,2.85
2022-07-25T17:33:21.093Z,3.35
2022-07-25T17:35:49.440Z,3.40
2022-07-25T17:38:20.082Z,3.58
2022-07-25T17:40:51.966Z,6.22
2022-07-25T17:43:19.923Z,3.05
2022-07-25T17:45:48.062Z,3.75
2022-07-25T17:48:19.149Z,4.55
2022-07-25T17:50:52.306Z,3.60
2022-07-25T17:53:20.364Z,3.08
2022-07-25T17:55:48.481Z,2.97
2022-07-25T17:58:16.653Z,5.82
2022-07-25T18:00:44.810Z,3.70
2022-07-25T18:03:13.018Z,4.38
2022-07-25T18:05:41.246Z,3.60
2022-07-25T18:08:11.100Z,3.20
2022-07-25T18:10:39.120Z,3.20
2022-07-25T18:13:07.576Z,4.28
2022-07-25T18:15:35.754Z,3.67
2022-07-25T18:18:03.949Z,3.25
2022-07-25T18:20:31.929Z,3.60
2022-07-25T18:22:59.905Z,4.95
2022-07-25T18:25:32.707Z,7.47
2022-07-25T18:28:01.880Z,3.63
2022-07-25T18:30:29.954Z,3.00
2022-07-25T18:32:58.078Z,3.38
2022-07-25T18:35:26.708Z,3.42
2022-07-25T18:37:54.836Z,3.30
2022-07-25T18:40:22.877Z,3.33
2022-07-25T18:42:52.253Z,3.00
2022-07-25T18:45:20.735Z,3.50
2022-07-25T18:47:49.845Z,5.25
2022-07-25T18:50:21.058Z,4.32
2022-07-25T18:52:49.009Z,3.72
2022-07-25T18:55:17.070Z,2.72
2022-07-25T18:57:45.263Z,3.50
2022-07-25T19:00:15.267Z,3.97
2022-07-25T19:02:43.603Z,3.35
2022-07-25T19:05:11.644Z,7.05
2022-07-25T19:07:40.298Z,8.07
2022-07-25T19:10:08.614Z,6.57
2022-07-25T19:12:38.157Z,10.60
2022-07-25T19:15:08.883Z,12.68
2022-07-25T19:17:38.362Z,7.80
2022-07-25T19:20:07.560Z,18.05
2022-07-25T19:22:35.634Z,5.07
2022-07-25T19:25:07.630Z,5.78
2022-07-25T19:27:36.045Z,7.28
2022-07-25T19:30:06.957Z,9.52
2022-07-25T19:32:38.357Z,9.77
2022-07-25T19:35:07.793Z,4.45
2022-07-25T19:37:38.926Z,4.10
2022-07-25T19:40:08.311Z,4.40
2022-07-25T19:42:36.317Z,3.40
2022-07-25T19:45:04.762Z,3.45
2022-07-25T19:47:32.942Z,4.05
2022-07-25T19:50:02.302Z,5.53
2022-07-25T19:52:30.315Z,3.20
2022-07-25T19:54:58.635Z,3.88
2022-07-25T19:57:26.842Z,4.07
2022-07-25T19:59:55.141Z,5.05
2022-07-25T20:02:24.374Z,5.38
2022-07-25T20:04:53.094Z,3.08
2022-07-25T20:07:24.615Z,3.15
2022-07-25T20:09:52.595Z,4.20
2022-07-25T20:12:20.729Z,12.60
2022-07-25T20:14:48.761Z,3.60
2022-07-25T20:17:16.819Z,4.13
2022-07-25T20:19:45.094Z,7.15
2022-07-25T20:22:13.108Z,5.10
2022-07-25T20:24:42.472Z,4.03
2022-07-25T20:27:10.849Z,5.93
2022-07-25T20:29:38.889Z,4.40
2022-07-25T20:32:07.214Z,3.92
2022-07-25T20:34:35.406Z,25.88
2022-07-25T20:37:03.672Z,9.57
2022-07-25T20:39:31.893Z,6.88
2022-07-25T20:42:01.278Z,4.88
2022-07-25T20:44:29.288Z,4.63
2022-07-25T20:46:57.364Z,4.40
2022-07-25T20:49:25.586Z,3.80
2022-07-25T20:51:54.759Z,3.30
2022-07-25T20:54:23.062Z,4.15
2022-07-25T20:56:51.404Z,4.35
2022-07-25T20:59:20.859Z,3.72
2022-07-25T21:01:48.944Z,4.93
2022-07-25T21:04:18.771Z,3.85
2022-07-25T21:06:46.851Z,4.30
2022-07-25T21:09:15.181Z,3.95
2022-07-25T21:11:43.241Z,4.00
2022-07-25T21:14:11.431Z,4.05
2022-07-25T21:16:41.073Z,3.67
2022-07-25T21:19:09.473Z,4.20
2022-07-25T21:21:37.725Z,3.50
2022-07-25T21:24:06.427Z,4.32
2022-07-25T21:26:34.441Z,4.50
2022-07-25T21:29:02.403Z,4.03
2022-07-25T21:31:30.365Z,4.15
2022-07-25T21:33:59.797Z,4.55
2022-07-25T21:36:28.428Z,3.88
2022-07-25T21:38:57.228Z,4.22
2022-07-25T21:41:25.166Z,4.32
2022-07-25T21:43:53.155Z,3.95
2022-07-25T21:46:21.154Z,4.30
2022-07-25T21:49:07.351Z,4.25
2022-07-25T21:51:40.946Z,4.82
2022-07-25T21:54:09.505Z,3.85
2022-07-25T21:56:37.653Z,3.78
2022-07-25T21:59:06.408Z,3.63
2022-07-25T22:01:34.719Z,3.72
2022-07-25T22:04:02.741Z,4.90
2022-07-25T22:06:30.730Z,4.85
2022-07-25T22:09:00.239Z,3.88
2022-07-25T22:11:42.311Z,3.85
2022-07-25T22:14:15.090Z,4.53
2022-07-25T22:16:43.306Z,4.32
2022-07-25T22:19:11.648Z,3.75
2022-07-25T22:21:40.623Z,4.57
2022-07-25T22:24:10.498Z,4.75
2022-07-25T22:26:38.531Z,3.88
2022-07-25T22:29:06.861Z,4.50
2022-07-25T22:31:35.272Z,4.60
2022-07-25T22:34:03.366Z,4.20
2022-07-25T22:36:31.368Z,4.45
2022-07-25T22:38:59.526Z,4.15
2022-07-25T22:41:28.841Z,4.72
2022-07-25T22:43:59.691Z,4.20
2022-07-25T22:46:29.010Z,4.03
2022-07-25T22:48:57.881Z,3.97
2022-07-25T22:51:26.355Z,4.00
2022-07-25T22:53:54.366Z,4.32
2022-07-25T22:56:22.498Z,4.00
2022-07-25T22:58:51.922Z,3.85
2022-07-25T23:01:19.967Z,4.75
2022-07-25T23:03:49.938Z,4.53
2022-07-25T23:06:18.581Z,4.03
2022-07-25T23:08:46.669Z,4.75
2022-07-25T23:11:14.687Z,3.88
2022-07-25T23:13:42.683Z,4.18
2022-07-25T23:16:12.138Z,4.25
2022-07-25T23:18:40.446Z,3.95
2022-07-25T23:21:08.511Z,4.32
2022-07-25T23:23:37.369Z,4.32
2022-07-25T23:26:05.528Z,4.38
2022-07-25T23:28:33.556Z,4.25
2022-07-25T23:31:01.597Z,4.38
2022-07-25T23:33:31.537Z,4.25
2022-07-25T23:35:59.489Z,3.83
2022-07-25T23:38:27.529Z,4.32
2022-07-25T23:40:55.501Z,5.00
2022-07-25T23:43:29.334Z,4.55
2022-07-25T23:46:11.608Z,4.07
2022-07-25T23:48:41.033Z,5.15
2022-07-25T23:51:09.075Z,5.03
2022-07-25T23:53:37.349Z,4.55
2022-07-25T23:56:05.881Z,4.60
2022-07-25T23:58:33.876Z,4.53
